Portada
METAR-TAF:

METAR-TAF

Aeroports :

Cebú, Filipines

latitud: 10-18-48N, longitud: 123-58-58E, altitud: 23 m

Observació

L'informe es va fer fa 35 minuts, a les 19:00 UTC
Vent 3 kt del Oest/Sud-Oest, variant entre Sud/Sud-Oest i Oest
Temperatura 26°C
Humitat 89%
Pressió 1013 hPa
Visibilitat 10 km o més
Escasses núvols a una alçada de 1800 ft, Cumulonimbus.

METAR: RPVM 291900Z 24003KT 200V260 9999 FEW018CB 26/24 Q1013 RMK A2991 CB/LTG OCNL SE/SW

Hora: 03:35 (19:35 UTC)

Pronòstic

L'informe es va fer fa 2 hores i 35 minuts, a les 17:00 UTC
Pronòstic vàlid del 29 a les 18 UTC al 30 a les 24 UTC
Vent 6 kt del Est/Nord-Est
Visibilitat 10 km o més
Escasses núvols a una alçada de 2000 ft
Núvols disperses a una alçada de 30000 ft
Temporalment
l' 29 a les 18 UTC al 29 a les 24 UTC
Vent 4 kt amb direcció variable
Visibilitat: 9000 m
Escasses núvols a una alçada de 1800 ft, Cumulonimbus.
Escasses núvols a una alçada de 2000 ft
Núvols disperses a una alçada de 30000 ft
tempesta, pluja
Temporalment
l' 30 a les 00 UTC al 30 a les 06 UTC
Vent 5 kt del Nord/Nord-Oest
Visibilitat 10 km o més
Escasses núvols a una alçada de 1800 ft, Cumulonimbus.
Escasses núvols a una alçada de 2000 ft
Núvols disperses a una alçada de 30000 ft
Escasses núvols a una alçada de 2000 ft
Cel ennuvolat a una alçada de 30000 ft
xàfecs de pluja
Temporalment
l' 29 a les 18 UTC al 29 a les 24 UTC
Vent 4 kt del Nord

TAF: RPVM 291700Z 2918/3024 06006KT 9999 FEW020 SCT300 TEMPO 2918/2924 VRB04KT 9000 -TSRA FEW018CB FEW020 SCT300 TEMPO 3000/3006 04008KT 9000 -SHRA FEW018CB FEW020 SCT300 RPLC 291700Z 2918/3024 34005KT 9999 FEW020 BKN300 TX35/3006Z TN25/2922Z TEMPO 2918/2924 36004KT

Observacions i pronòstics meteorològics de més de 4000 aeroports (METAR i TAF).

Les estacions disponibles són els punts grocs i vermells al mapa.

Posi el ratolí al punt desitjat per veure el nom de l'estació.

Feu clic per veure les observacions i els pronòstics meteorològics.

Per canviar el mapa: feu clic els botons verds amb una creu de color negre per apropar; al botó verd amb un guió per allunyar la imatge; o en les fletxes verdes per a mapes adjacents.


METAR-TAF: